Terminal Aerodrome Forecast
Issued by NWS Portland, OR

Home | Current Version | Previous Version | Text Only | Print | Product List | Glossary On
Versions: 1 2 3 4 5 6 7 8 9 10 11 12 13 14 15 16 17 18 19 20 21 22 23 24
000
FTUS46 KPQR 260254 AAA
TAFPDX
TAF AMD
KPDX 260254Z 2603/2624 31011KT P6SM SKC
     FM260900 31007KT P6SM SCT060
     FM261300 32005KT P6SM OVC015
     FM261900 30006KT P6SM SCT020
     FM262100 31009KT P6SM SKC=

USA.gov is the U.S. government's official web portal to all federal, state and local government web resources and services.